Time;durP1;ratioP1;P1;durP2;ratioP2;P2;SDS_P1;SDS_P2;PMS_P1;PMS_P2;Temp;Humidity;BMP_temperature;BMP_pressure;BME280_temperature;BME280_humidity;BME280_pressure;Samples;Min_cycle;Max_cycle;Signal;HPM_P1;HPM_P2
2022/10/29 00:01:05;;;;;;;16.37;11.63;;;;;;;11.07;100.00;99384.41;2012998;88;21041;-84
2022/10/29 00:04:07;;;;;;;16.87;11.70;;;;;;;11.06;100.00;99378.84;2004622;88;21073;-84
2022/10/29 00:07:08;;;;;;;14.53;10.35;;;;;;;11.07;100.00;99392.77;1979021;89;21091;-84
2022/10/29 00:10:09;;;;;;;17.50;11.25;;;;;;;11.05;100.00;99381.61;1990634;89;21002;-84
2022/10/29 00:13:09;;;;;;;16.42;10.50;;;;;;;11.06;100.00;99386.70;1979227;89;21093;-84
2022/10/29 00:16:10;;;;;;;15.88;10.48;;;;;;;11.09;100.00;99378.99;1989802;89;21642;-84
2022/10/29 00:19:12;;;;;;;15.28;11.18;;;;;;;11.13;100.00;99376.84;1978916;89;21054;-84
2022/10/29 00:22:12;;;;;;;17.55;10.48;;;;;;;11.19;100.00;99376.19;1979091;89;21010;-84
2022/10/29 00:25:13;;;;;;;14.25;10.90;;;;;;;11.25;100.00;99371.59;1978674;89;21018;-84
2022/10/29 00:28:14;;;;;;;14.55;11.57;;;;;;;11.26;100.00;99366.19;1979121;89;21078;-84
2022/10/29 00:31:15;;;;;;;19.45;12.75;;;;;;;11.27;100.00;99361.27;1979098;89;21070;-84
2022/10/29 00:34:15;;;;;;;15.53;11.05;;;;;;;11.28;100.00;99358.14;1991872;88;21078;-84
2022/10/29 00:37:16;;;;;;;16.90;10.82;;;;;;;11.27;100.00;99357.83;1981138;88;21049;-84
2022/10/29 00:40:17;;;;;;;14.35;10.68;;;;;;;11.28;100.00;99359.45;1984166;90;21045;-84
2022/10/29 00:43:18;;;;;;;14.83;11.53;;;;;;;11.28;100.00;99362.08;1984316;89;21016;-84
2022/10/29 00:46:18;;;;;;;17.85;11.00;;;;;;;11.25;100.00;99351.44;1997869;87;20961;-84
2022/10/29 00:49:19;;;;;;;17.30;10.95;;;;;;;11.22;100.00;99350.94;2000040;89;21094;-84
2022/10/29 00:52:20;;;;;;;16.82;10.38;;;;;;;11.22;100.00;99345.70;2000404;89;21016;-84
2022/10/29 00:55:21;;;;;;;14.45;10.53;;;;;;;11.22;100.00;99348.32;1997306;87;21016;-84
2022/10/29 00:58:21;;;;;;;18.90;11.50;;;;;;;11.23;100.00;99342.09;1996684;87;21088;-84
2022/10/29 01:01:22;;;;;;;15.53;10.88;;;;;;;11.22;100.00;99338.66;1996444;89;21068;-84
2022/10/29 01:04:23;;;;;;;15.45;11.15;;;;;;;11.22;100.00;99337.84;1990405;89;21503;-84
2022/10/29 01:07:24;;;;;;;15.28;11.30;;;;;;;11.20;100.00;99334.58;2010172;87;21085;-84
2022/10/29 01:10:24;;;;;;;16.23;12.20;;;;;;;11.19;100.00;99334.25;2000831;89;21051;-84
2022/10/29 01:13:25;;;;;;;14.55;10.70;;;;;;;11.15;100.00;99326.38;2000597;89;21058;-84
2022/10/29 01:16:26;;;;;;;17.87;11.48;;;;;;;11.12;100.00;99327.55;2042686;86;21015;-84
2022/10/29 01:19:27;;;;;;;15.90;11.38;;;;;;;11.08;100.00;99323.64;2041698;87;21487;-84
2022/10/29 01:22:28;;;;;;;15.28;11.00;;;;;;;11.03;100.00;99327.23;2047699;87;21007;-84
2022/10/29 01:25:28;;;;;;;14.13;11.08;;;;;;;10.99;100.00;99322.02;2043940;87;21063;-84
2022/10/29 01:28:29;;;;;;;16.48;10.90;;;;;;;10.96;100.00;99324.95;2044165;87;21777;-84
2022/10/29 01:31:30;;;;;;;16.27;10.95;;;;;;;10.96;100.00;99321.02;2047665;87;21038;-84
2022/10/29 01:34:31;;;;;;;15.90;10.85;;;;;;;10.96;100.00;99324.95;2046135;87;21495;-84
2022/10/29 01:37:31;;;;;;;15.58;10.15;;;;;;;10.96;100.00;99322.33;2005373;88;21110;-84
2022/10/29 01:40:32;;;;;;;15.45;10.23;;;;;;;10.97;100.00;99328.74;2003303;88;21137;-83
2022/10/29 01:43:33;;;;;;;14.68;11.18;;;;;;;10.97;100.00;99322.66;2006513;88;21000;-84
2022/10/29 01:46:33;;;;;;;14.20;10.25;;;;;;;10.92;100.00;99316.63;2048006;87;21027;-84
2022/10/29 01:49:34;;;;;;;17.52;12.37;;;;;;;10.91;100.00;99324.16;2048015;86;21062;-84
2022/10/29 01:52:35;;;;;;;14.53;11.95;;;;;;;10.92;100.00;99338.89;2051398;86;20993;-84
2022/10/29 01:55:36;;;;;;;19.32;12.73;;;;;;;10.93;100.00;99320.06;2049384;86;21055;-84
2022/10/29 01:58:37;;;;;;;17.48;11.78;;;;;;;10.92;100.00;99315.80;2054664;85;20985;-84
2022/10/29 02:01:37;;;;;;;23.10;15.58;;;;;;;10.89;100.00;99320.89;2054787;86;21530;-84
2022/10/29 02:04:38;;;;;;;25.08;15.83;;;;;;;10.87;100.00;99316.29;2048277;85;21039;-84
2022/10/29 02:07:39;;;;;;;21.45;13.70;;;;;;;10.83;100.00;99314.51;2045979;87;21040;-84
2022/10/29 02:10:40;;;;;;;15.90;10.50;;;;;;;10.79;100.00;99315.84;2038360;87;21142;-84
2022/10/29 02:13:41;;;;;;;17.05;10.98;;;;;;;10.74;100.00;99314.20;2017570;87;20995;-84
2022/10/29 02:16:41;;;;;;;15.75;10.95;;;;;;;10.67;100.00;99318.45;2006096;88;21102;-84
2022/10/29 02:19:42;;;;;;;13.58;11.70;;;;;;;10.63;100.00;99311.92;2005966;88;21027;-84
2022/10/29 02:22:43;;;;;;;16.52;10.78;;;;;;;10.63;100.00;99312.41;2014141;87;22113;-84
2022/10/29 02:25:44;;;;;;;12.07;9.43;;;;;;;10.62;100.00;99305.05;2019946;87;21039;-84
2022/10/29 02:28:45;;;;;;;14.03;10.13;;;;;;;10.59;100.00;99309.78;2038366;87;21507;-85
2022/10/29 02:31:45;;;;;;;16.45;10.63;;;;;;;10.54;100.00;99306.36;2038693;87;21078;-84
2022/10/29 02:34:46;;;;;;;12.07;9.88;;;;;;;10.56;100.00;99305.70;2036238;87;21026;-84
2022/10/29 02:37:47;;;;;;;13.65;9.60;;;;;;;10.56;100.00;99299.16;2041594;87;21048;-84
2022/10/29 02:40:48;;;;;;;14.55;10.70;;;;;;;10.59;100.00;99301.44;2042156;87;21095;-84
2022/10/29 02:43:49;;;;;;;16.45;11.60;;;;;;;10.62;100.00;99303.74;2036872;87;21000;-84
2022/10/29 02:46:49;;;;;;;14.95;10.43;;;;;;;10.67;100.00;99305.36;2038616;87;21546;-83
2022/10/29 02:49:50;;;;;;;14.68;9.50;;;;;;;10.71;100.00;99296.70;2042096;86;21010;-84
2022/10/29 02:52:51;;;;;;;15.00;10.50;;;;;;;10.74;100.00;99301.59;2054865;83;20991;-83
2022/10/29 02:55:51;;;;;;;11.45;8.60;;;;;;;10.76;100.00;99306.17;2072599;81;21073;-84
2022/10/29 02:58:53;;;;;;;13.20;10.25;;;;;;;10.68;100.00;99291.77;2050790;86;21098;-84
2022/10/29 03:01:53;;;;;;;12.40;9.30;;;;;;;10.68;100.00;99291.77;2026289;86;21041;-84
2022/10/29 03:04:54;;;;;;;12.53;9.55;;;;;;;10.71;100.00;99291.45;2026162;88;21049;-84
2022/10/29 03:07:55;;;;;;;12.90;10.72;;;;;;;10.71;100.00;99288.84;2032054;86;21028;-84
2022/10/29 03:10:55;;;;;;;16.45;11.15;;;;;;;10.72;100.00;99284.73;2063557;85;21583;-84
2022/10/29 03:13:56;;;;;;;16.07;10.15;;;;;;;10.72;100.00;99273.45;2063523;86;21040;-84
2022/10/29 03:16:57;;;;;;;16.32;10.78;;;;;;;10.70;100.00;99285.89;2063528;86;20973;-84
2022/10/29 03:19:58;;;;;;;13.85;10.48;;;;;;;10.69;100.00;99276.37;2063302;85;21060;-84
2022/10/29 03:22:58;;;;;;;13.40;11.25;;;;;;;10.67;100.00;99270.50;2059217;86;20987;-84
2022/10/29 03:25:59;;;;;;;16.15;10.10;;;;;;;10.66;100.00;99278.84;2059469;86;21010;-84
2022/10/29 03:29:00;;;;;;;15.05;9.90;;;;;;;10.67;100.00;99273.11;2057034;86;21022;-84
2022/10/29 03:32:00;;;;;;;20.37;10.58;;;;;;;10.67;100.00;99273.93;2058819;86;21050;-84
2022/10/29 03:35:01;;;;;;;15.10;9.80;;;;;;;10.69;100.00;99268.52;2059455;86;21087;-84
2022/10/29 03:38:02;;;;;;;13.48;10.88;;;;;;;10.71;100.00;99277.87;2059616;86;21053;-84
2022/10/29 03:41:07;;;;;;;14.47;10.23;;;;;;;10.74;100.00;99276.22;2033855;86;21023;-84
2022/10/29 03:44:05;;;;;;;13.20;10.30;;;;;;;10.77;100.00;99278.98;2063905;86;21113;-85
2022/10/29 03:47:06;;;;;;;15.68;10.72;;;;;;;10.83;100.00;99280.45;2063767;86;21588;-84
2022/10/29 03:50:07;;;;;;;15.65;10.53;;;;;;;10.87;100.00;99284.04;2078389;85;20978;-84
2022/10/29 03:53:07;;;;;;;15.23;11.15;;;;;;;10.90;100.00;99287.16;2098801;85;21002;-84
2022/10/29 03:56:08;;;;;;;17.23;10.00;;;;;;;10.93;100.00;99285.50;2098745;85;21081;-84
2022/10/29 03:59:09;;;;;;;13.83;11.00;;;;;;;10.98;100.00;99288.95;2095745;83;21030;-83
2022/10/29 04:02:11;;;;;;;12.95;10.08;;;;;;;10.98;100.00;99291.56;2065005;85;21012;-84
2022/10/29 04:05:12;;;;;;;14.03;9.88;;;;;;;10.97;100.00;99295.99;2062851;85;21085;-84
2022/10/29 04:08:13;;;;;;;12.63;9.55;;;;;;;10.97;100.00;99295.99;2059100;85;21039;-84
2022/10/29 04:11:13;;;;;;;15.35;10.18;;;;;;;10.96;100.00;99282.54;2050484;87;21538;-84
2022/10/29 04:14:14;;;;;;;14.80;10.38;;;;;;;10.99;100.00;99284.03;2045271;87;21050;-84
2022/10/29 04:17:15;;;;;;;12.98;10.03;;;;;;;11.00;100.00;99280.42;2042514;87;21015;-84
2022/10/29 04:20:15;;;;;;;16.62;10.75;;;;;;;11.01;100.00;99276.31;2045042;86;21074;-84
2022/10/29 04:23:16;;;;;;;16.10;10.63;;;;;;;11.03;100.00;99271.72;2045118;87;21581;-84
2022/10/29 04:26:17;;;;;;;14.33;9.48;;;;;;;11.07;100.00;99266.97;2045058;87;20992;-84
2022/10/29 04:29:17;;;;;;;16.87;10.55;;;;;;;11.11;100.00;99258.59;2020897;87;21033;-84
2022/10/29 04:32:18;;;;;;;12.45;9.95;;;;;;;11.17;100.00;99260.22;2012302;88;21018;-84
2022/10/29 04:35:19;;;;;;;12.53;9.30;;;;;;;11.19;100.00;99256.44;2009386;89;21519;-84
2022/10/29 04:38:20;;;;;;;15.43;10.40;;;;;;;11.22;100.00;99260.02;2012278;87;21560;-85
2022/10/29 04:41:20;;;;;;;11.60;9.53;;;;;;;11.25;100.00;99253.64;2013684;85;21028;-84
2022/10/29 04:44:21;;;;;;;12.98;10.50;;;;;;;11.27;100.00;99252.47;2009614;87;20983;-84
2022/10/29 04:47:22;;;;;;;12.45;9.53;;;;;;;11.29;100.00;99249.67;2054949;86;21144;-84
2022/10/29 04:50:22;;;;;;;12.68;9.65;;;;;;;11.31;100.00;99252.94;2054691;87;21504;-85
2022/10/29 04:53:23;;;;;;;14.23;9.98;;;;;;;11.34;100.00;99246.06;2059366;83;21029;-85
2022/10/29 04:56:24;;;;;;;13.55;10.15;;;;;;;11.36;100.00;99248.83;2058819;84;21037;-85
2022/10/29 04:59:24;;;;;;;13.98;9.63;;;;;;;11.38;100.00;99249.95;2055010;87;20997;-84
2022/10/29 05:02:25;;;;;;;13.30;9.43;;;;;;;11.40;100.00;99247.98;2054775;86;21001;-84
2022/10/29 05:05:26;;;;;;;13.28;9.83;;;;;;;11.41;100.00;99246.98;2054664;86;21060;-84
2022/10/29 05:08:27;;;;;;;11.22;9.28;;;;;;;11.43;100.00;99260.77;2049730;86;21004;-83
2022/10/29 05:11:27;;;;;;;13.18;9.25;;;;;;;11.48;100.00;99255.80;2074445;84;21045;-84
2022/10/29 05:14:28;;;;;;;11.80;10.53;;;;;;;11.49;100.00;99258.74;2110536;84;21002;-84
2022/10/29 05:17:29;;;;;;;12.70;9.35;;;;;;;11.53;100.00;99257.92;2110582;84;21523;-84
2022/10/29 05:20:30;;;;;;;13.60;9.93;;;;;;;11.55;100.00;99259.88;2083388;84;21020;-84
2022/10/29 05:23:30;;;;;;;13.40;9.65;;;;;;;11.59;100.00;99250.66;2061095;84;21042;-84
2022/10/29 05:26:31;;;;;;;12.85;9.95;;;;;;;11.61;100.00;99249.52;2070982;86;21025;-84
2022/10/29 05:29:32;;;;;;;12.33;8.83;;;;;;;11.63;100.00;99261.95;2080309;84;21023;-84
2022/10/29 05:32:32;;;;;;;12.47;9.10;;;;;;;11.66;100.00;99254.23;2071445;84;21003;-84
2022/10/29 05:35:33;;;;;;;11.75;9.75;;;;;;;11.70;100.00;99255.50;2070055;86;21038;-86
2022/10/29 05:38:34;;;;;;;10.60;9.00;;;;;;;11.71;100.00;99253.72;2065780;86;21569;-84
2022/10/29 05:41:35;;;;;;;12.35;9.73;;;;;;;11.72;100.00;99247.48;2067771;86;20998;-84
2022/10/29 05:44:35;;;;;;;16.23;9.08;;;;;;;11.74;100.00;99257.30;2067718;86;21073;-84
2022/10/29 05:47:36;;;;;;;10.48;8.60;;;;;;;11.75;100.00;99265.00;2065651;86;21482;-88
2022/10/29 05:50:37;;;;;;;13.78;9.25;;;;;;;11.77;100.00;99265.62;2067801;86;21505;-88
2022/10/29 05:53:38;;;;;;;14.07;9.90;;;;;;;11.81;100.00;99270.91;2065209;86;21026;-86
2022/10/29 05:56:38;;;;;;;10.72;8.55;;;;;;;11.84;100.00;99269.23;2065452;85;21517;-88
2022/10/29 05:59:39;;;;;;;16.35;9.40;;;;;;;11.87;100.00;99269.37;2061814;84;21020;-90
2022/10/29 06:02:42;;;;;;;13.03;10.15;;;;;;;11.91;100.00;99274.11;2067475;86;21578;-90
2022/10/29 06:05:44;;;;;;;15.35;9.30;;;;;;;11.99;100.00;99274.55;2046674;86;21083;-90
2022/10/29 06:08:45;;;;;;;13.62;8.83;;;;;;;12.06;100.00;99272.84;2076206;84;21535;-89
2022/10/29 06:11:48;;;;;;;11.10;8.43;;;;;;;12.12;100.00;99276.09;2063396;86;21099;-90
2022/10/29 06:14:50;;;;;;;11.10;8.13;;;;;;;12.17;100.00;99275.08;2030986;87;21626;-90
2022/10/29 06:17:51;;;;;;;11.73;9.10;;;;;;;12.23;100.00;99298.48;2036864;86;21020;-89
2022/10/29 06:20:51;;;;;;;10.03;8.83;;;;;;;12.30;100.00;99293.35;2037554;87;21018;-88
2022/10/29 06:23:53;;;;;;;9.10;7.83;;;;;;;12.38;100.00;99291.48;2031773;87;22064;-90
2022/10/29 06:26:53;;;;;;;12.75;8.05;;;;;;;12.47;100.00;99294.36;2009172;88;21095;-88
2022/10/29 06:29:54;;;;;;;10.90;8.68;;;;;;;12.57;100.00;99298.05;2055060;85;21071;-84
2022/10/29 06:32:55;;;;;;;12.23;8.88;;;;;;;12.63;100.00;99304.41;2077260;85;21464;-89
2022/10/29 06:35:55;;;;;;;9.33;7.53;;;;;;;12.71;100.00;99298.58;2062117;85;21523;-87
2022/10/29 06:38:56;;;;;;;10.10;7.83;;;;;;;12.79;100.00;99305.05;2061146;85;21085;-89
2022/10/29 06:41:57;;;;;;;12.45;9.23;;;;;;;12.85;100.00;99302.70;2062141;84;20985;-88
2022/10/29 06:44:58;;;;;;;10.43;8.60;;;;;;;12.84;100.00;99294.52;2070567;84;21007;-88
2022/10/29 06:47:59;;;;;;;10.23;6.72;;;;;;;12.90;100.00;99315.64;2076434;85;21027;-88
2022/10/29 06:50:59;;;;;;;9.38;7.72;;;;;;;12.89;100.00;99313.98;2069523;86;20980;-88
2022/10/29 06:54:00;;;;;;;14.68;9.45;;;;;;;12.83;100.00;99316.03;2056450;86;21600;-92
2022/10/29 06:57:01;;;;;;;12.43;8.30;;;;;;;12.79;100.00;99320.81;2062030;86;21020;-87
2022/10/29 07:00:01;;;;;;;10.80;7.20;;;;;;;12.79;100.00;99322.63;2059779;85;21046;-87
2022/10/29 07:03:03;;;;;;;11.95;7.67;;;;;;;12.81;100.00;99333.80;2057315;87;21574;-91
2022/10/29 07:06:04;;;;;;;12.95;8.35;;;;;;;12.83;100.00;99334.43;2057013;87;21030;-89
2022/10/29 07:09:05;;;;;;;10.32;8.00;;;;;;;12.87;100.00;99329.62;1999768;89;21510;-90
2022/10/29 07:12:06;;;;;;;12.78;8.28;;;;;;;12.95;100.00;99343.50;2050450;87;20995;-90
2022/10/29 07:15:06;;;;;;;17.42;11.45;;;;;;;13.06;100.00;99329.09;2003247;89;20989;-88
2022/10/29 07:18:07;;;;;;;12.68;8.53;;;;;;;13.18;100.00;99334.74;1986093;88;21042;-85
2022/10/29 07:21:08;;;;;;;13.38;7.72;;;;;;;13.30;100.00;99334.12;2047020;85;21013;-86
2022/10/29 07:24:09;;;;;;;12.47;7.72;;;;;;;13.42;100.00;99347.63;2053385;87;21028;-85
2022/10/29 07:27:10;;;;;;;12.20;8.33;;;;;;;13.52;100.00;99345.53;2079579;84;21018;-87
2022/10/29 07:30:14;;;;;;;9.55;6.65;;;;;;;13.62;100.00;99342.62;2000934;87;21117;-88
2022/10/29 07:33:14;;;;;;;12.53;7.72;;;;;;;13.70;100.00;99342.52;1992213;88;21535;-89
2022/10/29 07:36:26;;;;;;;11.33;7.37;;;;;;;13.82;100.00;99344.20;2078819;84;21541;-88
2022/10/29 07:39:20;;;;;;;9.35;7.30;;;;;;;13.91;100.00;99341.27;2003404;87;21705;-88
2022/10/29 07:42:20;;;;;;;10.72;7.08;;;;;;;13.99;100.00;99353.51;2050778;87;20991;-88
2022/10/29 07:45:21;;;;;;;10.45;6.47;;;;;;;14.08;100.00;99364.24;2002817;89;21001;-87
2022/10/29 07:48:22;;;;;;;9.03;7.00;;;;;;;14.20;100.00;99360.11;2045920;87;21018;-89
2022/10/29 07:51:23;;;;;;;8.18;7.33;;;;;;;14.30;100.00;99362.43;2078778;85;21469;-85
2022/10/29 07:54:23;;;;;;;10.40;7.47;;;;;;;14.42;100.00;99361.42;2095050;85;21608;-86
2022/10/29 07:57:24;;;;;;;9.20;7.15;;;;;;;14.51;100.00;99357.19;2095115;85;21540;-86
2022/10/29 08:00:25;;;;;;;11.43;7.00;;;;;;;14.63;100.00;99363.25;2058465;85;21026;-86
2022/10/29 08:03:26;;;;;;;15.88;8.78;;;;;;;14.74;100.00;99354.35;2003421;88;21052;-89
2022/10/29 08:06:27;;;;;;;15.18;7.45;;;;;;;14.89;100.00;99357.38;2050664;87;21498;-86
2022/10/29 08:09:27;;;;;;;14.78;7.28;;;;;;;14.99;100.00;99353.41;2021486;85;21056;-89
2022/10/29 08:12:28;;;;;;;11.38;7.25;;;;;;;15.13;100.00;99353.50;2012281;87;21055;-87
2022/10/29 08:15:29;;;;;;;12.43;6.62;;;;;;;15.25;100.00;99348.80;2042799;86;21025;-86
2022/10/29 08:18:30;;;;;;;10.60;6.90;;;;;;;15.39;100.00;99340.48;1995341;89;21046;-87
2022/10/29 08:21:30;;;;;;;10.93;7.40;;;;;;;15.53;100.00;99340.02;2011602;88;21004;-87
2022/10/29 08:24:31;;;;;;;11.85;7.92;;;;;;;15.68;100.00;99332.00;2011121;88;21021;-87
2022/10/29 08:27:32;;;;;;;9.83;6.65;;;;;;;15.82;100.00;99337.66;2011509;88;21035;-88
2022/10/29 08:30:33;;;;;;;9.13;6.50;;;;;;;15.93;100.00;99336.56;2039352;86;20967;-88
2022/10/29 08:33:34;;;;;;;11.48;6.55;;;;;;;16.05;100.00;99344.72;2003333;88;21041;-87
2022/10/29 08:36:34;;;;;;;10.58;7.60;;;;;;;16.15;100.00;99346.46;2049792;86;21033;-88
2022/10/29 08:39:35;;;;;;;7.72;6.50;;;;;;;16.28;100.00;99346.20;2010854;88;20993;-87
2022/10/29 08:42:36;;;;;;;11.95;6.67;;;;;;;16.34;100.00;99342.23;2042341;87;21027;-87
2022/10/29 08:45:37;;;;;;;10.55;6.33;;;;;;;16.43;100.00;99348.95;1990102;89;21027;-87
2022/10/29 08:48:37;;;;;;;12.37;7.53;;;;;;;16.53;100.00;99341.94;2083711;84;21559;-87
2022/10/29 08:51:38;;;;;;;9.88;6.60;;;;;;;16.63;100.00;99348.14;2085562;85;21493;-87
2022/10/29 08:54:39;;;;;;;18.42;7.58;;;;;;;16.77;100.00;99337.41;2083382;85;20978;-87
2022/10/29 08:57:40;;;;;;;8.70;5.85;;;;;;;16.92;100.00;99343.81;2084686;85;21009;-88
2022/10/29 09:00:41;;;;;;;6.03;5.25;;;;;;;17.10;100.00;99334.41;2085694;85;21006;-87
2022/10/29 09:03:42;;;;;;;10.93;6.40;;;;;;;17.27;100.00;99340.38;2083616;85;21086;-87
2022/10/29 09:06:42;;;;;;;8.58;6.50;;;;;;;17.46;100.00;99325.45;2085625;85;20993;-88
2022/10/29 09:09:43;;;;;;;13.03;7.08;;;;;;;17.63;100.00;99327.12;2084857;84;21038;-87
2022/10/29 09:12:44;;;;;;;9.90;5.67;;;;;;;17.80;100.00;99331.47;2079799;84;21500;-87
2022/10/29 09:15:45;;;;;;;9.53;5.95;;;;;;;17.90;100.00;99335.28;2110754;84;21476;-88
2022/10/29 09:18:45;;;;;;;8.28;5.92;;;;;;;18.03;100.00;99330.44;2110530;84;21364;-87
2022/10/29 09:21:46;;;;;;;10.23;5.50;;;;;;;18.10;100.00;99335.17;2104636;84;20992;-88
2022/10/29 09:24:47;;;;;;;9.68;6.25;;;;;;;18.16;100.00;99330.34;2110667;84;21452;-88
2022/10/29 09:27:48;;;;;;;18.57;6.75;;;;;;;18.21;100.00;99334.22;2110408;84;21052;-88
2022/10/29 09:30:48;;;;;;;11.97;6.67;;;;;;;18.22;100.00;99340.63;2109302;83;20968;-87
2022/10/29 09:33:49;;;;;;;8.98;6.03;;;;;;;18.27;100.00;99331.50;2114176;84;21023;-88
2022/10/29 09:36:50;;;;;;;12.18;6.20;;;;;;;18.29;100.00;99336.61;2115768;84;21023;-87
2022/10/29 09:39:51;;;;;;;8.73;5.53;;;;;;;18.25;100.00;99340.19;2119817;84;21484;-87
2022/10/29 09:42:51;;;;;;;9.18;6.03;;;;;;;18.21;100.00;99335.54;2119356;82;21686;-87
2022/10/29 09:45:52;;;;;;;10.08;6.15;;;;;;;18.15;100.00;99331.37;2096992;84;21570;-90
2022/10/29 09:48:53;;;;;;;11.38;5.53;;;;;;;18.09;100.00;99332.22;2119859;84;20993;-89
2022/10/29 09:51:54;;;;;;;8.75;5.90;;;;;;;18.07;100.00;99334.27;2111399;84;21015;-87
2022/10/29 09:54:55;;;;;;;8.83;5.10;;;;;;;18.10;100.00;99340.47;2119813;84;21029;-86
2022/10/29 09:57:55;;;;;;;10.32;6.67;;;;;;;18.19;100.00;99331.23;2119632;84;21347;-87
2022/10/29 10:00:56;;;;;;;12.82;6.83;;;;;;;18.29;100.00;99324.69;2117509;84;21003;-84
2022/10/29 10:03:57;;;;;;;11.80;6.75;;;;;;;18.39;100.00;99327.67;2117562;84;21505;-85
2022/10/29 10:06:58;;;;;;;10.43;6.33;;;;;;;18.45;100.00;99316.99;2119717;84;21531;-88
2022/10/29 10:09:59;;;;;;;14.53;6.37;;;;;;;18.49;100.00;99314.73;2110111;84;21017;-90
2022/10/29 10:12:59;;;;;;;11.38;6.30;;;;;;;18.51;100.00;99317.17;2105222;84;21051;-87
2022/10/29 10:16:00;;;;;;;15.10;7.33;;;;;;;18.48;100.00;99311.80;2092525;85;21044;-89
2022/10/29 10:19:01;;;;;;;13.43;7.00;;;;;;;18.50;100.00;99319.53;2112675;83;20977;-89
2022/10/29 10:22:02;;;;;;;14.07;6.83;;;;;;;18.52;100.00;99315.63;2091648;85;20998;-88
2022/10/29 10:25:03;;;;;;;11.50;7.15;;;;;;;18.53;100.00;99309.80;2092815;85;21033;-87
2022/10/29 10:28:03;;;;;;;9.55;6.35;;;;;;;18.53;100.00;99311.94;2074307;85;20992;-88
2022/10/29 10:31:04;;;;;;;8.45;5.95;;;;;;;18.51;100.00;99313.19;2078589;85;20993;-88
2022/10/29 10:34:05;;;;;;;11.00;6.03;;;;;;;18.50;100.00;99311.06;2052895;85;21042;-89
2022/10/29 10:37:06;;;;;;;11.28;6.15;;;;;;;18.54;100.00;99303.47;2049551;87;21026;-91
2022/10/29 10:40:07;;;;;;;10.72;6.67;;;;;;;18.61;100.00;99288.32;2057193;86;21485;-88
2022/10/29 10:43:08;;;;;;;13.08;6.17;;;;;;;18.72;100.00;99287.12;2048150;85;21079;-89
2022/10/29 10:46:09;;;;;;;12.20;6.72;;;;;;;18.83;100.00;99289.56;2035333;86;20981;-89
2022/10/29 10:49:10;;;;;;;11.50;6.70;;;;;;;18.93;100.00;99291.22;2054489;85;21008;-89
2022/10/29 10:52:10;;;;;;;14.10;6.70;;;;;;;19.03;100.00;99290.72;2087555;85;21481;-88
2022/10/29 10:58:14;;;;;;;9.05;6.15;;;;;;;19.24;100.00;99285.48;2062994;86;21543;-88
2022/10/29 11:01:15;;;;;;;11.40;6.05;;;;;;;19.30;100.00;99295.22;2066181;85;20977;-89
2022/10/29 11:04:15;;;;;;;13.13;6.22;;;;;;;19.28;100.00;99292.77;2047745;85;20988;-91
2022/10/29 11:07:16;;;;;;;10.60;5.92;;;;;;;19.28;100.00;99304.70;2034620;87;21132;-89
2022/10/29 11:10:17;;;;;;;10.48;6.28;;;;;;;19.31;100.00;99312.25;2034099;87;21084;-90
2022/10/29 11:13:18;;;;;;;8.25;4.80;;;;;;;19.27;100.00;99307.07;2033783;86;21071;-88
2022/10/29 11:16:18;;;;;;;7.80;5.35;;;;;;;19.21;100.00;99314.61;2033800;86;21047;-90
2022/10/29 11:19:19;;;;;;;11.50;5.20;;;;;;;19.13;100.00;99316.75;2033384;87;21039;-87
2022/10/29 11:22:20;;;;;;;11.95;6.15;;;;;;;19.04;100.00;99314.89;2033823;87;21156;-90
2022/10/29 11:25:21;;;;;;;9.50;5.40;;;;;;;19.01;100.00;99307.34;2033912;87;21472;-88
2022/10/29 11:28:22;;;;;;;13.08;5.87;;;;;;;18.96;100.00;99304.05;2033514;87;21455;-88
2022/10/29 11:31:22;;;;;;;8.73;5.50;;;;;;;18.91;100.00;99294.59;2033531;87;20988;-89
2022/10/29 11:34:23;;;;;;;8.25;4.87;;;;;;;18.89;100.00;99296.66;2033724;87;21059;-86
2022/10/29 11:37:24;;;;;;;9.33;5.12;;;;;;;18.89;100.00;99290.54;2033482;87;21027;-87
2022/10/29 11:40:25;;;;;;;10.48;5.75;;;;;;;18.88;100.00;99291.05;2033432;87;21552;-88
2022/10/29 11:43:25;;;;;;;9.28;5.37;;;;;;;18.89;100.00;99287.37;2033466;87;21091;-89
2022/10/29 11:46:26;;;;;;;9.50;5.35;;;;;;;18.92;100.00;99281.61;2033381;87;21011;-86
2022/10/29 11:49:27;;;;;;;9.30;5.83;;;;;;;18.94;100.00;99285.40;2033622;87;21024;-86
2022/10/29 11:52:30;;;;;;;13.25;5.75;;;;;;;18.97;100.00;99288.94;2033126;87;21084;-89
2022/10/29 11:55:30;;;;;;;9.33;5.60;;;;;;;19.01;100.00;99288.25;2033634;87;21063;-87
2022/10/29 11:58:33;;;;;;;12.18;5.75;;;;;;;19.03;100.00;99280.91;2035133;87;20980;-86
2022/10/29 12:01:35;;;;;;;10.70;5.80;;;;;;;19.04;100.00;99278.55;2042010;87;21061;-85
2022/10/29 12:04:36;;;;;;;11.55;5.95;;;;;;;19.10;100.00;99278.16;2053187;87;21153;-85
2022/10/29 12:07:48;;;;;;;8.75;5.87;;;;;;;19.17;100.00;99274.12;2053593;87;21006;-85
2022/10/29 12:10:41;;;;;;;10.03;5.08;;;;;;;19.24;100.00;99270.88;1990380;87;21066;-88
2022/10/29 12:13:42;;;;;;;12.20;6.05;;;;;;;19.29;100.00;99268.35;2001671;88;21131;-89
2022/10/29 12:16:43;;;;;;;8.45;5.35;;;;;;;19.32;100.00;99275.38;1985856;89;21010;-93
2022/10/29 12:19:44;;;;;;;10.80;5.92;;;;;;;19.35;100.00;99260.83;1994036;88;21121;-91
2022/10/29 12:22:44;;;;;;;9.00;4.15;;;;;;;19.32;100.00;99261.29;1984876;88;21007;-89
2022/10/29 12:25:45;;;;;;;6.12;4.83;;;;;;;19.33;100.00;99273.01;2002304;88;21034;-90
2022/10/29 12:28:46;;;;;;;7.83;4.72;;;;;;;19.31;100.00;99267.12;1986834;89;21151;-89
2022/10/29 12:31:47;;;;;;;8.23;5.58;;;;;;;19.29;100.00;99262.55;1984115;88;21089;-89
2022/10/29 12:34:47;;;;;;;12.65;5.87;;;;;;;19.27;100.00;99258.48;1987645;87;21071;-90
2022/10/29 12:37:48;;;;;;;8.75;5.10;;;;;;;19.25;100.00;99265.86;2005868;88;21117;-90
2022/10/29 12:40:49;;;;;;;8.58;4.83;;;;;;;19.22;100.00;99259.68;2017990;87;21389;-90
2022/10/29 12:43:50;;;;;;;7.45;4.55;;;;;;;19.21;100.00;99268.67;2052461;86;21513;-89
2022/10/29 12:46:50;;;;;;;8.78;4.92;;;;;;;19.19;100.00;99256.93;2046978;86;21005;-90
2022/10/29 12:49:51;;;;;;;9.48;5.80;;;;;;;19.17;100.00;99255.02;2058342;85;20945;-89
2022/10/29 12:52:52;;;;;;;10.65;5.92;;;;;;;19.18;100.00;99260.62;2071210;85;21071;-90
2022/10/29 12:55:52;;;;;;;12.43;5.85;;;;;;;19.19;100.00;99258.77;2054566;85;20986;-90
2022/10/29 12:58:55;;;;;;;7.22;5.62;;;;;;;19.18;100.00;99260.62;2039179;87;21011;-90
2022/10/29 13:01:56;;;;;;;10.60;6.60;;;;;;;19.17;100.00;99262.98;2049408;87;21100;-89
2022/10/29 13:04:56;;;;;;;9.03;5.40;;;;;;;19.20;100.00;99261.72;2049883;86;21481;-89
2022/10/29 13:07:57;;;;;;;9.80;5.30;;;;;;;19.18;100.00;99253.98;2057899;86;21048;-87
2022/10/29 13:10:59;;;;;;;11.25;6.33;;;;;;;19.17;100.00;99254.21;2053460;87;21073;-90
2022/10/29 13:14:00;;;;;;;15.53;7.58;;;;;;;19.21;100.00;99250.09;2079573;85;21115;-90
2022/10/29 13:17:01;;;;;;;9.95;6.33;;;;;;;19.25;100.00;99257.90;2097871;85;21016;-91
2022/10/29 13:20:01;;;;;;;11.75;6.92;;;;;;;19.26;100.00;99247.05;2095239;84;21045;-93
2022/10/29 13:23:02;;;;;;;9.78;6.22;;;;;;;19.25;100.00;99248.09;2099189;84;20989;-91
2022/10/29 13:26:03;;;;;;;12.93;7.33;;;;;;;19.26;100.00;99243.07;2088824;84;21497;-91
2022/10/29 13:29:03;;;;;;;14.00;9.85;;;;;;;19.22;100.00;99247.22;2010248;86;21032;-90
2022/10/29 13:32:04;;;;;;;26.52;9.75;;;;;;;19.20;100.00;99240.48;2079408;85;21441;-90
2022/10/29 13:35:05;;;;;;;8.85;5.95;;;;;;;19.20;100.00;99242.66;2074591;86;20982;-85
2022/10/29 13:38:06;;;;;;;11.83;6.12;;;;;;;19.21;100.00;99236.83;2047280;86;21004;-89
2022/10/29 13:41:06;;;;;;;9.63;6.10;;;;;;;19.20;100.00;99245.80;2076461;85;20933;-91
2022/10/29 13:44:07;;;;;;;12.37;7.83;;;;;;;19.17;100.00;99241.75;2041873;86;21046;-90
2022/10/29 13:47:08;;;;;;;10.23;7.60;;;;;;;19.16;100.00;99245.95;2040955;86;21108;-90
2022/10/29 13:50:09;;;;;;;9.70;7.10;;;;;;;19.15;100.00;99243.82;2105067;84;21015;-90
2022/10/29 13:53:10;;;;;;;10.93;6.65;;;;;;;19.09;100.00;99246.54;2090369;84;21087;-93